Flight Track Log - Related Links

Times and Time Zones

All times are in EDT time to prevent confusion due to time zone crossing. See the N591WA flight status page for this flight to view local times or setup timezone preferences in your user account.

Time Position Orientation Groundspeed Altitude Reporting Facility
EDT Latitude Longitude Course Direction KTS MPH feet Rate Location/Type
Fri 02:49:00 PM 43.4000 -88.0500 97° East 155 178 3,100  Level KMKE
Fri 02:50:16 PM 43.3944 -87.9856 97° East 151 174 4,100 870 Climbing Chicago Center
Fri 02:51:18 PM 43.3667 -87.9261 123° Southeast 157 181 5,100 968 Climbing Chicago Center
Fri 02:52:20 PM 43.3447 -87.8742 120° Southeast 157 181 6,100 968 Climbing Chicago Center
Fri 02:53:22 PM 43.3275 -87.8161 112° Southeast 166 191 7,100 968 Climbing Chicago Center
Fri 02:54:24 PM 43.3222 -87.7519 96° East 169 194 8,100 919 Climbing Chicago Center
Fri 02:55:26 PM 43.3169 -87.6878 96° East 168 193 9,000 864 Climbing Chicago Center
Fri 02:56:29 PM 43.3117 -87.6211 96° East 174 200 9,900 1,008 Climbing Chicago Center
Fri 02:57:31 PM 43.3058 -87.5417 96° East 178 205 11,100 1,016 Climbing Chicago Center
Fri 02:58:33 PM 43.3003 -87.4733 96° East 179 206 12,000 871 Climbing Chicago Center
Fri 02:59:35 PM 43.2928 -87.4031 98° East 184 212 12,900 484 Climbing Chicago Center
Fri 03:00:37 PM 43.2872 -87.3219 95° East 206 237 13,000 48 Climbing Chicago Center
Fri 03:01:39 PM 43.2797 -87.2389 97° East 217 250 13,000  Level Chicago Center
Fri 03:02:41 PM 43.2719 -87.1589 98° East 213 245 13,000  Level Chicago Center
Fri 03:03:43 PM 43.2650 -87.0792 97° East 211 243 13,000  Level Chicago Center
Fri 03:04:45 PM 43.2578 -86.9839 96° East 208 239 13,000  Level Chicago Center
Fri 03:05:47 PM 43.2506 -86.9047 97° East 209 241 13,000  Level Chicago Center
Fri 03:06:50 PM 43.2431 -86.8261 97° East 209 241 13,000  Level Chicago Center
Fri 03:07:52 PM 43.2361 -86.7461 97° East 210 242 13,000  Level Chicago Center
Fri 03:08:54 PM 43.2289 -86.6669 97° East 211 243 13,000  Level Chicago Center
Fri 03:09:56 PM 43.2206 -86.5867 98° East 211 243 13,000  Level Chicago Center
Fri 03:10:58 PM 43.2122 -86.4925 97° East 209 241 13,000  Level Chicago Center
Fri 03:12:00 PM 43.2056 -86.4133 97° East 209 241 13,000  Level Chicago Center
Fri 03:13:02 PM 43.1975 -86.3339 98° East 210 242 13,000  Level Chicago Center
Fri 03:14:04 PM 43.1953 -86.2525 92° East 212 244 13,000  Level Chicago Center
Fri 03:15:06 PM 43.2061 -86.1744 79° East 209 241 13,000  Level Chicago Center
Fri 03:16:08 PM 43.2142 -86.0933 82° East 211 243 13,000  Level Chicago Center
Fri 03:17:11 PM 43.2228 -86.0139 82° East 210 242 13,000  Level Chicago Center
Fri 03:18:13 PM 43.2331 -85.9181 82° East 210 242 13,000 -48 Level Chicago Center
Fri 03:19:15 PM 43.2414 -85.8375 82° East 211 243 12,900 -48 Descending Chicago Center
Fri 03:20:17 PM 43.2500 -85.7567 82° East 213 245 12,900  Level Chicago Center
Fri 03:21:19 PM 43.2589 -85.6747 82° East 215 247 12,900  Level Chicago Center
Fri 03:22:21 PM 43.2667 -85.5947 82° East 213 245 12,900  Level Chicago Center
Fri 03:23:23 PM 43.2758 -85.5117 81° East 217 250 12,900 -97 Level Chicago Center
Fri 03:24:25 PM 43.2833 -85.4292 83° East 218 251 12,700 -435 Descending Chicago Center
Fri 03:25:27 PM 43.2944 -85.3231 82° East 230 265 12,000 -677 Descending Chicago Center
Fri 03:26:29 PM 43.3036 -85.2364 82° East 232 267 11,300 -528 Descending Chicago Center
Fri 03:27:32 PM 43.3122 -85.1492 82° East 232 267 10,900 -384 Descending Chicago Center
Fri 03:28:34 PM 43.3208 -85.0667 82° East 223 257 10,500 -484 Descending Chicago Center
Fri 03:29:36 PM 43.3283 -84.9819 83° East 222 255 9,900 -581 Descending Chicago Center
Fri 03:30:38 PM 43.3364 -84.8975 82° East 223 257 9,300 -677 Descending Chicago Center
Fri 03:31:40 PM 43.3469 -84.7933 82° East 229 264 8,500 -726 Descending Chicago Center
Fri 03:32:42 PM 43.3550 -84.7067 83° East 230 265 7,800 -677 Descending Chicago Center
Fri 03:33:44 PM 43.3628 -84.6200 83° East 230 265 7,100 -629 Descending Chicago Center
Fri 03:34:46 PM 43.3706 -84.5303 83° East 233 268 6,500 -629 Descending Chicago Center
Fri 03:35:48 PM 43.3797 -84.4458 81° East 229 264 5,800 -629 Descending Chicago Center
Fri 03:36:50 PM 43.3872 -84.3622 83° East 224 258 5,200 -576 Descending Chicago Center
Fri 03:37:53 PM 43.3961 -84.2764 82° East 225 259 4,600 -571 Descending Chicago Center

Login

Don't have an account? Register now (free) for customized features, flight alerts, and more!